createdAt,value
2018-07-30T00:03:08.503Z,45.70
2018-07-30T00:08:11.640Z,45.60
2018-07-30T00:13:14.756Z,46.00
2018-07-30T00:18:17.886Z,45.60
2018-07-30T00:23:21.015Z,46.00
2018-07-30T00:28:24.131Z,46.00
2018-07-30T00:33:27.236Z,46.10
2018-07-30T00:38:30.336Z,46.20
2018-07-30T00:43:33.453Z,46.40
2018-07-30T00:48:36.585Z,46.20
2018-07-30T00:53:39.686Z,46.20
2018-07-30T00:58:42.800Z,46.60
2018-07-30T01:03:45.883Z,46.50
2018-07-30T01:08:49.007Z,47.00
2018-07-30T01:13:52.168Z,46.90
2018-07-30T01:18:55.279Z,46.90
2018-07-30T01:29:07.912Z,47.30
2018-07-30T01:34:11.045Z,47.30
2018-07-30T01:39:14.153Z,47.60
2018-07-30T01:44:17.260Z,47.40
2018-07-30T01:49:20.366Z,47.40
2018-07-30T01:54:23.484Z,47.40
2018-07-30T01:59:26.602Z,47.80
2018-07-30T02:04:29.733Z,47.70
2018-07-30T02:09:32.864Z,47.70
2018-07-30T02:14:35.959Z,47.60
2018-07-30T02:19:39.063Z,47.70
2018-07-30T02:24:42.176Z,47.80
2018-07-30T02:29:45.311Z,47.70
2018-07-30T02:34:48.403Z,48.30
2018-07-30T02:44:54.457Z,48.30
2018-07-30T02:49:57.583Z,48.20
2018-07-30T02:55:00.676Z,48.30
2018-07-30T03:00:03.804Z,48.30
2018-07-30T03:05:06.925Z,48.20
2018-07-30T03:10:10.057Z,48.50
2018-07-30T03:15:13.172Z,48.60
2018-07-30T03:20:16.308Z,48.80
2018-07-30T03:25:19.428Z,48.70
2018-07-30T03:30:22.588Z,49.00
2018-07-30T03:35:25.720Z,48.80
2018-07-30T03:40:28.868Z,48.90
2018-07-30T03:45:31.994Z,48.60
2018-07-30T03:50:35.144Z,49.00
2018-07-30T03:55:38.292Z,48.80
2018-07-30T04:00:41.417Z,49.30
2018-07-30T04:10:47.480Z,49.40
2018-07-30T04:15:50.617Z,49.10
2018-07-30T04:20:53.847Z,49.10
2018-07-30T04:30:59.937Z,49.40
2018-07-30T04:36:03.198Z,49.90
2018-07-30T04:41:06.607Z,49.60
2018-07-30T04:46:09.748Z,49.80
2018-07-30T04:51:12.913Z,49.70
2018-07-30T04:56:16.210Z,49.80
2018-07-30T05:06:22.517Z,49.90
2018-07-30T05:16:28.592Z,50.00
2018-07-30T05:21:31.736Z,49.80
2018-07-30T05:26:34.886Z,49.90
2018-07-30T05:31:38.181Z,49.40
2018-07-30T05:36:41.265Z,49.80
2018-07-30T05:46:47.294Z,49.80
2018-07-30T05:51:50.436Z,49.70
2018-07-30T05:56:53.543Z,49.40
2018-07-30T06:01:56.685Z,49.60
2018-07-30T06:06:59.808Z,49.70
2018-07-30T06:12:02.951Z,49.70
2018-07-30T06:17:06.094Z,49.30
2018-07-30T06:22:09.252Z,49.60
2018-07-30T06:27:12.393Z,49.40
2018-07-30T06:32:15.605Z,49.20
2018-07-30T06:37:18.728Z,49.60
2018-07-30T06:42:21.902Z,49.30
2018-07-30T06:47:25.041Z,50.10
2018-07-30T06:52:28.173Z,49.30
2018-07-30T06:57:31.303Z,49.20
2018-07-30T07:02:34.581Z,49.10
2018-07-30T07:07:37.717Z,49.30
2018-07-30T07:12:40.881Z,48.90
2018-07-30T07:17:44.614Z,49.10
2018-07-30T07:22:47.748Z,49.20
2018-07-30T07:27:50.916Z,49.00
2018-07-30T07:32:54.006Z,48.90
2018-07-30T07:37:57.168Z,48.80
2018-07-30T07:48:03.204Z,48.50
2018-07-30T07:53:06.357Z,48.40
2018-07-30T07:58:09.504Z,48.60
2018-07-30T08:03:12.654Z,48.20
2018-07-30T08:08:15.794Z,47.40
2018-07-30T08:13:18.988Z,47.20
2018-07-30T08:18:22.109Z,47.50
2018-07-30T08:23:25.222Z,47.10
2018-07-30T08:28:28.341Z,46.80
2018-07-30T08:33:31.489Z,46.00
2018-07-30T08:38:34.624Z,45.40
2018-07-30T08:43:38.045Z,44.00
2018-07-30T08:48:41.214Z,43.90
2018-07-30T08:53:44.350Z,43.80
2018-07-30T08:58:47.468Z,43.80
2018-07-30T09:03:50.589Z,43.90
2018-07-30T09:08:53.882Z,43.40
2018-07-30T09:13:57.007Z,42.60
2018-07-30T09:19:00.154Z,42.30
2018-07-30T09:24:03.604Z,41.10
2018-07-30T09:29:06.724Z,41.30
2018-07-30T09:34:10.025Z,40.80
2018-07-30T09:39:13.241Z,40.70
2018-07-30T09:44:16.440Z,39.40
2018-07-30T09:49:20.409Z,39.10
2018-07-30T09:54:23.565Z,38.80
2018-07-30T09:59:26.724Z,38.20
2018-07-30T10:04:29.865Z,38.50
2018-07-30T10:09:33.025Z,39.30
2018-07-30T10:14:36.221Z,39.10
2018-07-30T10:19:39.382Z,38.20
2018-07-30T10:24:42.510Z,38.30
2018-07-30T10:29:45.633Z,37.80
2018-07-30T10:34:48.748Z,38.00
2018-07-30T10:39:51.922Z,37.50
2018-07-30T10:44:55.037Z,37.30
2018-07-30T10:49:58.152Z,37.90
2018-07-30T10:55:01.306Z,36.30
2018-07-30T11:00:04.773Z,34.90
2018-07-30T11:05:08.198Z,35.10
2018-07-30T11:10:11.321Z,34.50
2018-07-30T11:15:14.491Z,33.60
2018-07-30T11:20:17.612Z,32.80
2018-07-30T11:25:20.740Z,32.30
2018-07-30T11:30:23.863Z,33.90
2018-07-30T11:40:29.926Z,35.30
2018-07-30T11:45:33.129Z,35.00
2018-07-30T11:50:36.247Z,33.80
2018-07-30T11:55:39.385Z,33.70
2018-07-30T12:00:42.525Z,34.10
2018-07-30T12:05:45.659Z,34.00
2018-07-30T12:10:48.858Z,33.30
2018-07-30T12:15:52.314Z,33.80
2018-07-30T12:20:55.642Z,30.90
2018-07-30T12:25:58.777Z,30.20
2018-07-30T12:31:01.930Z,29.70
2018-07-30T12:36:05.280Z,29.30
2018-07-30T12:41:08.415Z,29.90
2018-07-30T12:46:11.529Z,29.90
2018-07-30T12:51:14.700Z,28.50
2018-07-30T13:01:20.801Z,28.70
2018-07-30T13:06:23.931Z,30.20
2018-07-30T13:11:27.054Z,30.80
2018-07-30T13:16:30.292Z,29.70
2018-07-30T13:21:33.492Z,30.00
2018-07-30T13:26:36.827Z,29.80
2018-07-30T13:36:43.045Z,29.50
2018-07-30T13:41:46.213Z,29.10
2018-07-30T13:46:49.424Z,28.90
2018-07-30T13:51:52.649Z,28.70
2018-07-30T13:56:55.789Z,29.10
2018-07-30T14:01:58.928Z,29.50
2018-07-30T14:07:02.069Z,29.00
2018-07-30T14:12:05.205Z,29.10
2018-07-30T14:17:08.357Z,29.00
2018-07-30T14:22:11.481Z,28.50
2018-07-30T14:27:14.740Z,27.90
2018-07-30T14:32:17.911Z,28.70
2018-07-30T14:37:21.113Z,28.90
2018-07-30T14:42:24.268Z,29.30
2018-07-30T14:48:51.924Z,28.70
2018-07-30T14:53:55.060Z,29.60
2018-07-30T14:58:58.204Z,29.10
2018-07-30T15:04:01.326Z,29.70
2018-07-30T15:09:07.997Z,28.90
2018-07-30T15:14:11.144Z,29.40
2018-07-30T15:19:14.333Z,28.80
2018-07-30T15:24:17.393Z,27.70
2018-07-30T15:29:20.517Z,27.50
2018-07-30T15:34:23.661Z,29.30
2018-07-30T15:39:26.772Z,28.90
2018-07-30T15:44:29.931Z,28.10
2018-07-30T15:49:33.064Z,27.20
2018-07-30T15:54:36.197Z,29.30
2018-07-30T15:59:39.416Z,29.20
2018-07-30T16:04:42.569Z,28.50
2018-07-30T16:09:45.712Z,29.60
2018-07-30T16:14:48.840Z,29.60
2018-07-30T16:19:52.037Z,29.20
2018-07-30T16:24:55.180Z,29.20
2018-07-30T16:29:58.380Z,29.70
2018-07-30T16:35:01.539Z,30.00
2018-07-30T16:40:05.264Z,29.60
2018-07-30T16:45:09.140Z,29.80
2018-07-30T16:50:12.293Z,30.00
2018-07-30T16:55:15.433Z,29.80
2018-07-30T17:00:18.536Z,30.00
2018-07-30T17:05:21.688Z,29.80
2018-07-30T17:15:27.763Z,29.90
2018-07-30T17:20:30.937Z,30.40
2018-07-30T17:25:34.080Z,30.60
2018-07-30T17:30:37.189Z,30.10
2018-07-30T17:35:40.288Z,30.30
2018-07-30T17:40:43.415Z,30.50
2018-07-30T17:45:46.531Z,31.10
2018-07-30T17:50:49.657Z,31.10
2018-07-30T17:55:52.784Z,31.10
2018-07-30T18:00:55.939Z,31.30
2018-07-30T18:05:59.061Z,31.60
2018-07-30T18:11:02.231Z,31.90
2018-07-30T18:16:05.388Z,31.10
2018-07-30T18:21:08.533Z,31.50
2018-07-30T18:26:11.645Z,31.80
2018-07-30T18:31:14.799Z,32.30
2018-07-30T18:36:18.176Z,32.80
2018-07-30T18:41:21.286Z,32.70
2018-07-30T18:46:24.554Z,33.20
2018-07-30T18:51:27.690Z,33.30
2018-07-30T18:56:30.899Z,33.60
2018-07-30T19:01:33.960Z,33.70
2018-07-30T19:06:37.077Z,34.00
2018-07-30T19:11:40.229Z,34.10
2018-07-30T19:16:43.349Z,33.90
2018-07-30T19:21:46.478Z,34.30
2018-07-30T19:26:49.615Z,34.60
2018-07-30T19:31:52.741Z,34.60
2018-07-30T19:36:55.965Z,34.60
2018-07-30T19:41:59.072Z,35.00
2018-07-30T19:47:02.240Z,35.30
2018-07-30T19:52:05.396Z,36.30
2018-07-30T19:57:08.605Z,36.20
2018-07-30T20:02:11.725Z,36.40
2018-07-30T20:07:14.811Z,36.60
2018-07-30T20:12:18.020Z,37.00
2018-07-30T20:17:21.076Z,37.20
2018-07-30T20:22:24.204Z,37.40
2018-07-30T20:27:27.422Z,37.70
2018-07-30T20:32:30.641Z,38.20
2018-07-30T20:37:33.876Z,38.10
2018-07-30T20:42:37.501Z,38.50
2018-07-30T20:47:40.614Z,38.90
2018-07-30T20:52:43.764Z,39.00
2018-07-30T20:57:46.892Z,39.10
2018-07-30T21:02:50.109Z,39.60
2018-07-30T21:07:53.240Z,39.50
2018-07-30T21:12:56.389Z,39.80
2018-07-30T21:17:59.504Z,39.90
2018-07-30T21:23:02.748Z,40.00
2018-07-30T21:28:05.880Z,40.10
2018-07-30T21:33:09.026Z,40.40
2018-07-30T21:38:12.141Z,40.60
2018-07-30T21:43:15.388Z,40.90
2018-07-30T21:48:18.598Z,41.00
2018-07-30T21:53:21.781Z,41.10
2018-07-30T21:58:25.142Z,41.10
2018-07-30T22:03:28.268Z,41.10
2018-07-30T22:08:31.385Z,41.00
2018-07-30T22:13:34.517Z,41.00
2018-07-30T22:18:37.633Z,41.00
2018-07-30T22:23:40.785Z,41.00
2018-07-30T22:28:43.892Z,41.00
2018-07-30T22:33:47.884Z,41.00
2018-07-30T22:38:51.000Z,40.90
2018-07-30T22:43:54.154Z,41.00
2018-07-30T22:48:57.296Z,41.10
2018-07-30T22:54:00.419Z,41.10
2018-07-30T22:59:03.572Z,41.20
2018-07-30T23:04:06.712Z,41.30
2018-07-30T23:09:09.877Z,41.20
2018-07-30T23:14:13.029Z,41.30
2018-07-30T23:19:16.121Z,41.50
2018-07-30T23:24:19.252Z,41.40
2018-07-30T23:29:22.393Z,41.40
2018-07-30T23:34:25.518Z,41.50
2018-07-30T23:44:31.672Z,41.60
2018-07-30T23:49:34.852Z,41.60
2018-07-30T23:54:37.977Z,41.40
2018-07-30T23:59:41.113Z,41.40
